createdAt,value
2023-03-07T00:00:46.137Z,99.90
2023-03-07T00:01:47.638Z,99.90
2023-03-07T00:02:51.983Z,99.90
2023-03-07T00:03:53.836Z,99.90
2023-03-07T00:04:55.303Z,99.90
2023-03-07T00:06:09.871Z,99.90
2023-03-07T00:07:11.232Z,99.90
2023-03-07T00:08:12.921Z,99.90
2023-03-07T00:09:14.353Z,99.90
2023-03-07T00:10:15.841Z,99.90
2023-03-07T00:11:18.350Z,99.90
2023-03-07T00:12:21.667Z,99.90
2023-03-07T00:13:23.359Z,99.90
2023-03-07T00:14:24.888Z,99.90
2023-03-07T00:15:26.405Z,99.90
2023-03-07T00:16:28.176Z,99.90
2023-03-07T00:17:30.128Z,99.90
2023-03-07T00:18:32.069Z,99.90
2023-03-07T00:19:33.699Z,99.90
2023-03-07T00:20:35.277Z,99.90
2023-03-07T00:21:36.664Z,99.90
2023-03-07T00:22:38.476Z,99.90
2023-03-07T00:23:41.873Z,99.90
2023-03-07T00:24:43.296Z,99.90
2023-03-07T00:25:45.295Z,99.90
2023-03-07T00:26:46.747Z,99.90
2023-03-07T00:27:48.203Z,99.90
2023-03-07T00:28:51.673Z,99.90
2023-03-07T00:29:53.621Z,99.90
2023-03-07T00:30:58.965Z,99.90
2023-03-07T00:32:00.466Z,99.90
2023-03-07T00:33:02.036Z,99.90
2023-03-07T00:34:04.465Z,99.90
2023-03-07T00:35:06.343Z,99.90
2023-03-07T00:36:14.274Z,99.90
2023-03-07T00:37:16.292Z,99.90
2023-03-07T00:38:17.945Z,99.90
2023-03-07T00:39:19.293Z,99.90
2023-03-07T00:40:20.965Z,99.90
2023-03-07T00:41:27.491Z,99.90
2023-03-07T00:42:29.033Z,99.90
2023-03-07T00:43:31.436Z,99.90
2023-03-07T00:44:33.396Z,99.90
2023-03-07T00:45:34.947Z,99.90
2023-03-07T00:46:36.372Z,99.90
2023-03-07T00:47:37.847Z,99.90
2023-03-07T00:48:40.148Z,99.90
2023-03-07T00:49:42.081Z,99.90
2023-03-07T00:50:45.043Z,99.90
2023-03-07T00:51:47.225Z,99.90
2023-03-07T00:52:49.165Z,99.90
2023-03-07T00:53:51.354Z,99.90
2023-03-07T00:54:54.093Z,99.90
2023-03-07T00:56:00.196Z,99.90
2023-03-07T00:57:02.037Z,99.90
2023-03-07T00:58:03.622Z,99.90
2023-03-07T00:59:05.224Z,99.90
2023-03-07T01:00:09.058Z,99.90
2023-03-07T01:01:12.601Z,99.90
2023-03-07T01:02:14.680Z,99.90
2023-03-07T01:03:16.471Z,99.90
2023-03-07T01:04:18.146Z,99.90
2023-03-07T01:05:19.671Z,99.90
2023-03-07T01:06:23.829Z,99.90
2023-03-07T01:07:26.379Z,99.90
2023-03-07T01:08:28.181Z,99.90
2023-03-07T01:09:29.681Z,99.90
2023-03-07T01:10:33.233Z,99.90
2023-03-07T01:11:37.303Z,99.90
2023-03-07T01:12:39.031Z,99.90
2023-03-07T01:13:41.300Z,99.90
2023-03-07T01:14:42.777Z,99.90
2023-03-07T01:15:44.608Z,99.90
2023-03-07T01:16:46.256Z,99.90
2023-03-07T01:17:48.524Z,99.90
2023-03-07T01:18:52.983Z,99.90
2023-03-07T01:19:54.823Z,99.90
2023-03-07T01:20:57.041Z,99.90
2023-03-07T01:21:58.938Z,99.90
2023-03-07T01:23:01.242Z,99.90
2023-03-07T01:24:03.064Z,99.90
2023-03-07T01:25:04.742Z,99.90
2023-03-07T01:26:06.352Z,99.90
2023-03-07T01:27:08.112Z,99.90
2023-03-07T01:28:14.647Z,99.90
2023-03-07T01:29:16.139Z,99.90
2023-03-07T01:30:17.598Z,99.90
2023-03-07T01:31:19.669Z,99.90
2023-03-07T01:32:21.656Z,99.90
2023-03-07T01:33:23.129Z,99.90
2023-03-07T01:34:24.481Z,99.90
2023-03-07T01:35:27.575Z,99.90
2023-03-07T01:36:34.002Z,99.90
2023-03-07T01:37:38.345Z,99.90
2023-03-07T01:38:41.599Z,99.90
2023-03-07T01:39:45.318Z,99.90
2023-03-07T01:40:50.861Z,99.90
2023-03-07T01:41:54.064Z,99.90
2023-03-07T01:43:46.912Z,99.90
2023-03-07T01:45:11.789Z,99.90
2023-03-07T01:46:26.987Z,99.90
2023-03-07T01:47:30.493Z,99.90
2023-03-07T01:48:32.204Z,99.90
2023-03-07T01:49:38.489Z,99.90
2023-03-07T01:50:41.670Z,99.90
2023-03-07T01:51:47.721Z,99.90
2023-03-07T01:52:53.573Z,99.90
2023-03-07T01:53:57.424Z,99.90
2023-03-07T01:55:11.113Z,99.90
2023-03-07T01:56:14.380Z,99.90
2023-03-07T01:57:19.322Z,99.90
2023-03-07T01:58:20.802Z,99.90
2023-03-07T01:59:29.642Z,99.90
2023-03-07T02:00:31.106Z,99.90
2023-03-07T02:01:33.621Z,99.90
2023-03-07T02:02:36.453Z,99.90
2023-03-07T02:03:46.612Z,99.90
2023-03-07T02:04:53.860Z,99.90
2023-03-07T02:06:09.693Z,99.90
2023-03-07T02:07:11.366Z,99.90
2023-03-07T02:08:16.256Z,99.90
2023-03-07T02:09:21.188Z,99.90
2023-03-07T02:10:25.574Z,99.90
2023-03-07T02:11:27.262Z,99.90
2023-03-07T02:12:29.954Z,99.90
2023-03-07T02:13:31.719Z,99.90
2023-03-07T02:14:33.329Z,99.90
2023-03-07T02:15:35.612Z,99.90
2023-03-07T02:16:39.248Z,99.90
2023-03-07T02:17:43.661Z,99.90
2023-03-07T02:18:49.455Z,99.90
2023-03-07T02:20:09.954Z,99.90
2023-03-07T02:21:45.433Z,99.90
2023-03-07T02:22:49.597Z,99.90
2023-03-07T02:24:17.822Z,99.90
2023-03-07T02:25:46.796Z,99.90
2023-03-07T02:26:51.664Z,99.90
2023-03-07T02:27:55.827Z,99.90
2023-03-07T02:29:00.200Z,99.90
2023-03-07T02:30:02.032Z,99.90
2023-03-07T02:31:07.503Z,99.90
2023-03-07T02:32:11.450Z,99.90
2023-03-07T02:33:12.888Z,99.90
2023-03-07T02:34:22.857Z,99.90
2023-03-07T02:35:27.961Z,99.90
2023-03-07T02:36:35.822Z,99.90
2023-03-07T02:37:53.658Z,99.90
2023-03-07T02:38:57.780Z,99.90
2023-03-07T02:40:07.424Z,99.90
2023-03-07T02:41:12.281Z,99.90
2023-03-07T02:42:26.613Z,99.90
2023-03-07T02:43:41.781Z,99.90
2023-03-07T02:44:47.844Z,99.90
2023-03-07T02:45:51.446Z,99.90
2023-03-07T02:46:53.043Z,99.90
2023-03-07T02:47:56.958Z,99.90
2023-03-07T02:48:58.386Z,99.90
2023-03-07T02:50:00.200Z,99.90
2023-03-07T02:51:02.115Z,99.90
2023-03-07T02:52:04.457Z,99.90
2023-03-07T02:53:07.281Z,99.90
2023-03-07T02:54:09.178Z,99.90
2023-03-07T02:55:11.417Z,99.90
2023-03-07T02:56:17.199Z,99.90
2023-03-07T02:57:19.888Z,99.90
2023-03-07T02:58:22.002Z,99.90
2023-03-07T02:59:23.553Z,99.90
2023-03-07T03:00:25.611Z,99.90
2023-03-07T03:01:27.586Z,99.90
2023-03-07T03:02:29.553Z,99.90
2023-03-07T03:03:31.608Z,99.90
2023-03-07T03:04:33.505Z,99.90
2023-03-07T03:05:34.970Z,99.90
2023-03-07T03:06:36.614Z,99.90
2023-03-07T03:07:38.765Z,99.90
2023-03-07T03:08:41.832Z,99.90
2023-03-07T03:09:43.503Z,99.90
2023-03-07T03:10:44.930Z,99.90
2023-03-07T03:11:48.440Z,99.90
2023-03-07T03:12:52.128Z,99.90
2023-03-07T03:13:53.558Z,99.90
2023-03-07T03:14:55.020Z,99.90
2023-03-07T03:15:57.590Z,99.90
2023-03-07T03:16:59.093Z,99.90
2023-03-07T03:18:00.667Z,99.90
2023-03-07T03:19:02.144Z,99.90
2023-03-07T03:20:07.744Z,99.90
2023-03-07T03:21:12.102Z,99.90
2023-03-07T03:22:13.882Z,99.90
2023-03-07T03:23:18.696Z,99.90
2023-03-07T03:24:20.245Z,99.90
2023-03-07T03:25:24.472Z,99.90
2023-03-07T03:26:26.280Z,99.90
2023-03-07T03:27:27.721Z,99.90
2023-03-07T03:28:29.290Z,99.90
2023-03-07T03:29:31.102Z,99.90
2023-03-07T03:30:36.066Z,99.90
2023-03-07T03:31:38.846Z,99.90
2023-03-07T03:32:41.487Z,99.90
2023-03-07T03:33:45.219Z,99.90
2023-03-07T03:34:47.133Z,99.90
2023-03-07T03:35:48.880Z,99.90
2023-03-07T03:36:51.048Z,99.90
2023-03-07T03:37:52.432Z,99.90
2023-03-07T03:38:55.072Z,99.90
2023-03-07T03:39:56.552Z,99.90
2023-03-07T03:40:57.975Z,99.90
2023-03-07T03:41:59.531Z,99.90
2023-03-07T03:43:01.616Z,99.90
2023-03-07T03:44:04.112Z,99.90
2023-03-07T03:45:06.907Z,99.90
2023-03-07T03:46:08.776Z,99.90
2023-03-07T03:47:12.429Z,99.90
2023-03-07T03:48:14.428Z,99.90
2023-03-07T03:49:17.424Z,99.90
2023-03-07T03:50:21.853Z,99.90
2023-03-07T03:51:24.477Z,99.90
2023-03-07T03:52:27.775Z,99.90
2023-03-07T03:53:29.865Z,99.90
2023-03-07T03:54:33.174Z,99.90
2023-03-07T03:55:34.591Z,99.90
2023-03-07T03:56:35.967Z,99.90
2023-03-07T03:57:37.390Z,99.90
2023-03-07T03:58:39.892Z,99.90
2023-03-07T03:59:43.078Z,99.90
2023-03-07T04:00:45.122Z,99.90
2023-03-07T04:01:46.790Z,99.90
2023-03-07T04:02:48.470Z,99.90
2023-03-07T04:03:53.547Z,99.90
2023-03-07T04:04:56.005Z,99.90
2023-03-07T04:06:05.186Z,99.90
2023-03-07T04:07:06.721Z,99.90
2023-03-07T04:08:08.121Z,99.90
2023-03-07T04:09:11.049Z,99.90
2023-03-07T04:10:16.567Z,99.90
2023-03-07T04:11:19.677Z,99.90
2023-03-07T04:12:21.189Z,99.90
2023-03-07T04:13:22.708Z,99.90
2023-03-07T04:14:25.302Z,99.90
2023-03-07T04:15:27.208Z,99.90
2023-03-07T04:16:30.143Z,99.90
2023-03-07T04:17:31.757Z,99.90
2023-03-07T04:18:35.304Z,99.90
2023-03-07T04:19:36.937Z,99.90
2023-03-07T04:20:41.032Z,99.90
2023-03-07T04:21:43.157Z,99.90
2023-03-07T04:22:46.216Z,99.90
2023-03-07T04:23:50.199Z,99.90
2023-03-07T04:24:51.782Z,99.90
2023-03-07T04:25:56.485Z,99.90
2023-03-07T04:26:58.776Z,99.90
2023-03-07T04:28:00.381Z,99.90
2023-03-07T04:29:02.751Z,99.90
2023-03-07T04:30:08.136Z,99.90
2023-03-07T04:31:13.664Z,99.90
2023-03-07T04:32:15.406Z,99.90
2023-03-07T04:33:17.175Z,99.90
2023-03-07T04:34:18.673Z,99.90
2023-03-07T04:35:20.597Z,99.90
2023-03-07T04:36:23.308Z,99.90
2023-03-07T04:37:25.712Z,99.90
2023-03-07T04:38:27.124Z,99.90
2023-03-07T04:39:28.775Z,99.90
2023-03-07T04:40:30.516Z,99.90
2023-03-07T04:41:32.805Z,99.90
2023-03-07T04:42:41.241Z,99.90
2023-03-07T04:43:43.024Z,99.90
2023-03-07T04:44:44.709Z,99.90
2023-03-07T04:45:46.720Z,99.90
2023-03-07T04:46:48.853Z,99.90
2023-03-07T04:47:51.452Z,99.90
2023-03-07T04:48:53.328Z,99.90
2023-03-07T04:49:55.393Z,99.90
2023-03-07T04:50:57.396Z,99.90
2023-03-07T04:51:58.962Z,99.90
2023-03-07T04:53:00.689Z,99.90
2023-03-07T04:54:02.538Z,99.90
2023-03-07T04:55:04.609Z,99.90
2023-03-07T04:56:08.172Z,99.90
2023-03-07T04:57:10.323Z,99.90
2023-03-07T04:58:13.641Z,99.90
2023-03-07T04:59:15.895Z,99.90
2023-03-07T05:00:18.211Z,99.90
2023-03-07T05:01:20.568Z,99.90
2023-03-07T05:02:22.929Z,99.90
2023-03-07T05:03:26.233Z,99.90
2023-03-07T05:04:28.393Z,99.90
2023-03-07T05:05:30.270Z,99.90
2023-03-07T05:06:31.819Z,99.90
2023-03-07T05:07:33.748Z,99.90
2023-03-07T05:08:36.507Z,99.90
2023-03-07T05:09:38.255Z,99.90
2023-03-07T05:10:40.274Z,99.90
2023-03-07T05:11:41.689Z,99.90
2023-03-07T05:12:43.174Z,99.90
2023-03-07T05:13:46.068Z,99.90
2023-03-07T05:14:50.797Z,99.90
2023-03-07T05:15:53.446Z,99.90
2023-03-07T05:16:56.219Z,99.90
2023-03-07T05:17:57.835Z,99.90
2023-03-07T05:19:00.976Z,99.90
2023-03-07T05:20:05.663Z,99.90
2023-03-07T05:21:07.209Z,99.90
2023-03-07T05:22:09.776Z,99.90
2023-03-07T05:23:11.493Z,99.90
2023-03-07T05:24:13.057Z,99.90
2023-03-07T05:25:14.947Z,99.90
2023-03-07T05:26:17.201Z,99.90
2023-03-07T05:27:18.601Z,99.90
2023-03-07T05:28:20.304Z,99.90
2023-03-07T05:29:21.947Z,99.90
2023-03-07T05:30:23.539Z,99.90
2023-03-07T05:31:25.598Z,99.90
2023-03-07T05:32:27.309Z,99.90
2023-03-07T05:33:29.080Z,99.90
2023-03-07T05:34:30.904Z,99.90
2023-03-07T05:35:32.691Z,99.90
2023-03-07T05:36:35.543Z,99.90
2023-03-07T05:37:37.467Z,99.90
2023-03-07T05:38:40.179Z,99.90
2023-03-07T05:39:41.926Z,99.90
2023-03-07T05:40:43.454Z,99.90
2023-03-07T05:41:46.471Z,99.90
2023-03-07T05:42:48.200Z,99.90
2023-03-07T05:43:50.249Z,99.90
2023-03-07T05:44:51.891Z,99.90
2023-03-07T05:45:53.675Z,99.90
2023-03-07T05:46:55.215Z,99.90
2023-03-07T05:47:56.784Z,99.90
2023-03-07T05:48:58.262Z,99.90
2023-03-07T05:50:00.077Z,99.90
2023-03-07T05:51:01.630Z,99.90
2023-03-07T05:52:03.791Z,99.90
2023-03-07T05:53:06.447Z,99.90
2023-03-07T05:54:07.913Z,99.90
2023-03-07T05:55:10.745Z,99.90
2023-03-07T05:56:12.726Z,99.90
2023-03-07T05:57:14.149Z,99.90
2023-03-07T05:58:15.858Z,99.90
2023-03-07T05:59:19.911Z,99.90
2023-03-07T06:00:24.182Z,99.90
2023-03-07T06:01:34.528Z,99.90
2023-03-07T06:02:35.994Z,99.90
2023-03-07T06:03:37.681Z,99.90
2023-03-07T06:04:39.248Z,99.90
2023-03-07T06:05:40.854Z,99.90
2023-03-07T06:06:42.646Z,99.90
2023-03-07T06:07:44.824Z,99.90
2023-03-07T06:08:48.465Z,99.90
2023-03-07T06:09:51.614Z,99.90
2023-03-07T06:10:55.362Z,99.90
2023-03-07T06:11:58.127Z,99.90
2023-03-07T06:12:59.659Z,99.90
2023-03-07T06:14:01.151Z,99.90
2023-03-07T06:15:05.280Z,99.90
2023-03-07T06:16:08.940Z,99.90
2023-03-07T06:17:13.602Z,99.90
2023-03-07T06:18:16.612Z,99.90
2023-03-07T06:19:18.248Z,99.90
2023-03-07T06:20:22.890Z,99.90
2023-03-07T06:21:27.469Z,99.90
2023-03-07T06:22:32.244Z,99.90
2023-03-07T06:23:36.382Z,99.90
2023-03-07T06:24:41.775Z,99.90
2023-03-07T06:25:45.268Z,99.90
2023-03-07T06:26:48.096Z,99.90
2023-03-07T06:27:50.442Z,99.90
2023-03-07T06:28:52.108Z,99.90
2023-03-07T06:29:53.771Z,99.90
2023-03-07T06:30:55.437Z,99.90
2023-03-07T06:31:57.549Z,99.90
2023-03-07T06:32:59.284Z,99.90
2023-03-07T06:34:01.017Z,99.90
2023-03-07T06:35:02.714Z,99.90
2023-03-07T06:36:07.623Z,99.90
2023-03-07T06:37:09.861Z,99.90
2023-03-07T06:38:13.302Z,99.90
2023-03-07T06:39:20.901Z,99.90
2023-03-07T06:40:24.265Z,99.90
2023-03-07T06:41:26.099Z,99.90
2023-03-07T06:42:29.723Z,99.90
2023-03-07T06:43:31.267Z,99.90
2023-03-07T06:44:32.802Z,99.90
2023-03-07T06:45:34.777Z,99.90
2023-03-07T06:46:36.546Z,99.90
2023-03-07T06:47:43.740Z,99.90
2023-03-07T06:48:45.869Z,99.90
2023-03-07T06:49:51.499Z,99.90
2023-03-07T06:50:53.426Z,99.90
2023-03-07T06:51:55.113Z,99.90
2023-03-07T06:52:56.568Z,99.90
2023-03-07T06:53:58.720Z,99.90
2023-03-07T06:55:01.316Z,99.90
2023-03-07T06:56:04.447Z,99.90
2023-03-07T06:57:07.697Z,99.90
2023-03-07T06:58:09.207Z,99.90
2023-03-07T06:59:11.146Z,99.90
2023-03-07T07:00:13.600Z,99.90
2023-03-07T07:01:17.204Z,99.90
2023-03-07T07:02:20.380Z,99.90
2023-03-07T07:03:22.366Z,99.90
2023-03-07T07:04:23.905Z,99.90
2023-03-07T07:05:26.735Z,99.90
2023-03-07T07:06:29.075Z,99.90
2023-03-07T07:07:31.457Z,99.90
2023-03-07T07:08:33.998Z,99.90
2023-03-07T07:09:35.677Z,99.90
2023-03-07T07:10:37.598Z,99.90
2023-03-07T07:11:40.745Z,99.90
2023-03-07T07:12:46.154Z,99.90
2023-03-07T07:13:47.821Z,99.90
2023-03-07T07:14:53.090Z,99.90
2023-03-07T07:15:54.816Z,99.90
2023-03-07T07:16:58.341Z,99.90
2023-03-07T07:18:01.357Z,99.90
2023-03-07T07:19:03.724Z,99.90
2023-03-07T07:20:06.968Z,99.90
2023-03-07T07:21:08.866Z,99.90
2023-03-07T07:22:12.062Z,99.90
2023-03-07T07:23:13.774Z,99.90
2023-03-07T07:24:15.210Z,99.90
2023-03-07T07:25:17.733Z,99.90
2023-03-07T07:26:19.316Z,99.90
2023-03-07T07:27:21.094Z,99.90
2023-03-07T07:28:23.087Z,99.90
2023-03-07T07:29:25.866Z,99.90
2023-03-07T07:30:30.404Z,99.90
2023-03-07T07:31:32.304Z,99.90
2023-03-07T07:32:34.076Z,99.90
2023-03-07T07:33:36.677Z,99.90
2023-03-07T07:34:39.462Z,99.90
2023-03-07T07:35:46.057Z,99.90
2023-03-07T07:36:48.933Z,99.90
2023-03-07T07:37:50.796Z,99.90
2023-03-07T07:38:52.199Z,99.90
2023-03-07T07:39:53.674Z,99.90
2023-03-07T07:40:56.230Z,99.90
2023-03-07T07:41:58.541Z,99.90
2023-03-07T07:43:02.267Z,99.90
2023-03-07T07:44:12.800Z,99.90
2023-03-07T07:45:28.530Z,99.90
2023-03-07T07:46:30.124Z,99.90
2023-03-07T07:47:32.344Z,99.90
2023-03-07T07:48:33.990Z,99.90
2023-03-07T07:49:36.355Z,99.90
2023-03-07T07:50:37.803Z,99.90
2023-03-07T07:51:41.093Z,99.90
2023-03-07T07:52:42.506Z,99.90
2023-03-07T07:53:44.852Z,99.90
2023-03-07T07:54:46.798Z,99.90
2023-03-07T07:55:48.969Z,99.90
2023-03-07T07:56:51.250Z,99.90
2023-03-07T07:57:53.940Z,99.90
2023-03-07T07:58:55.387Z,99.90
2023-03-07T07:59:57.137Z,99.90
2023-03-07T08:00:58.788Z,99.90
2023-03-07T08:02:01.626Z,99.90
2023-03-07T08:03:03.324Z,99.90
2023-03-07T08:04:05.483Z,99.90
2023-03-07T08:05:10.199Z,99.90
2023-03-07T08:06:12.439Z,99.90
2023-03-07T08:07:14.554Z,99.90
2023-03-07T08:08:18.021Z,99.90
2023-03-07T08:09:19.568Z,99.90
2023-03-07T08:10:21.779Z,99.90
2023-03-07T08:11:24.199Z,99.90
2023-03-07T08:12:27.848Z,99.90
2023-03-07T08:13:29.538Z,99.90
2023-03-07T08:14:33.693Z,99.90
2023-03-07T08:15:35.336Z,99.90
2023-03-07T08:16:36.983Z,99.90
2023-03-07T08:17:38.878Z,99.90
2023-03-07T08:18:40.711Z,99.90
2023-03-07T08:19:42.065Z,99.90
2023-03-07T08:20:43.833Z,99.90
2023-03-07T08:21:45.361Z,99.90
2023-03-07T08:22:49.433Z,99.90
2023-03-07T08:23:51.091Z,99.90
2023-03-07T08:24:52.598Z,99.90
2023-03-07T08:25:53.963Z,99.90
2023-03-07T08:26:55.443Z,99.90
2023-03-07T08:27:58.041Z,99.90
2023-03-07T08:28:59.649Z,99.90
2023-03-07T08:30:01.837Z,99.90
2023-03-07T08:31:16.362Z,99.90
2023-03-07T08:32:17.839Z,99.90
2023-03-07T08:33:19.336Z,99.90
2023-03-07T08:34:21.506Z,99.90
2023-03-07T08:35:24.759Z,99.90
2023-03-07T08:36:26.523Z,99.90
2023-03-07T08:37:27.941Z,99.90
2023-03-07T08:38:29.579Z,99.90
2023-03-07T08:39:30.999Z,99.90
2023-03-07T08:40:32.511Z,99.90
2023-03-07T08:41:33.941Z,99.90
2023-03-07T08:42:35.482Z,99.90
2023-03-07T08:43:39.266Z,99.90
2023-03-07T08:44:41.241Z,99.90
2023-03-07T08:45:42.733Z,99.90
2023-03-07T08:46:44.331Z,99.90
2023-03-07T08:47:46.105Z,99.90
2023-03-07T08:48:47.590Z,99.90
2023-03-07T08:49:49.012Z,99.90
2023-03-07T08:50:50.648Z,99.90
2023-03-07T08:51:52.074Z,99.90
2023-03-07T08:52:53.489Z,99.90
2023-03-07T08:53:55.144Z,99.90
2023-03-07T08:54:56.730Z,99.90
2023-03-07T08:55:58.146Z,99.90
2023-03-07T08:57:00.641Z,99.90
2023-03-07T08:58:02.138Z,99.90
2023-03-07T08:59:03.607Z,99.90
2023-03-07T09:00:09.357Z,99.90
2023-03-07T09:01:13.078Z,99.90
2023-03-07T09:02:14.566Z,99.90
2023-03-07T09:03:16.395Z,99.90
2023-03-07T09:04:17.954Z,99.90
2023-03-07T09:05:19.654Z,99.90
2023-03-07T09:06:21.801Z,99.90
2023-03-07T09:07:23.358Z,99.90
2023-03-07T09:08:24.912Z,99.90
2023-03-07T09:09:28.596Z,99.90
2023-03-07T09:10:29.990Z,99.90
2023-03-07T09:11:31.508Z,99.90
2023-03-07T09:12:34.256Z,99.90
2023-03-07T09:13:42.991Z,99.90
2023-03-07T09:14:47.943Z,99.90
2023-03-07T09:15:49.552Z,99.90
2023-03-07T09:16:50.929Z,99.90
2023-03-07T09:17:52.696Z,99.90
2023-03-07T09:18:54.189Z,99.90
2023-03-07T09:19:56.627Z,99.90
2023-03-07T09:21:05.051Z,99.90
2023-03-07T09:22:07.200Z,99.90
2023-03-07T09:23:09.048Z,99.90
2023-03-07T09:24:10.745Z,99.90
2023-03-07T09:25:12.420Z,99.90
2023-03-07T09:26:13.925Z,99.90
2023-03-07T09:27:15.671Z,99.90
2023-03-07T09:28:17.140Z,99.90
2023-03-07T09:29:18.959Z,99.90
2023-03-07T09:30:21.010Z,99.90
2023-03-07T09:31:24.915Z,99.90
2023-03-07T09:32:26.535Z,99.90
2023-03-07T09:33:27.983Z,99.90
2023-03-07T09:34:29.993Z,99.90
2023-03-07T09:35:33.204Z,99.90
2023-03-07T09:36:35.756Z,99.90
2023-03-07T09:37:40.716Z,99.90
2023-03-07T09:38:42.570Z,99.90
2023-03-07T09:39:45.497Z,99.90
2023-03-07T09:40:48.425Z,99.90
2023-03-07T09:42:02.094Z,99.90
2023-03-07T09:43:09.064Z,99.90
2023-03-07T09:44:18.691Z,99.90
2023-03-07T09:46:00.933Z,99.90
2023-03-07T09:47:27.478Z,99.90
2023-03-07T09:49:00.554Z,99.90
2023-03-07T09:50:03.524Z,99.90
2023-03-07T09:51:23.946Z,99.80
2023-03-07T09:52:28.707Z,99.50
2023-03-07T09:53:43.506Z,99.80
2023-03-07T09:54:52.428Z,99.90
2023-03-07T09:55:57.691Z,99.90
2023-03-07T09:57:00.627Z,99.90
2023-03-07T09:58:12.587Z,99.90
2023-03-07T09:59:41.489Z,99.90
2023-03-07T10:00:45.677Z,99.90
2023-03-07T10:01:48.260Z,99.90
2023-03-07T10:03:09.092Z,99.90
2023-03-07T10:04:19.332Z,99.90
2023-03-07T10:05:36.518Z,99.90
2023-03-07T10:06:41.489Z,99.90
2023-03-07T10:07:43.376Z,99.90
2023-03-07T10:08:45.420Z,99.90
2023-03-07T10:09:47.044Z,99.90
2023-03-07T10:11:23.316Z,99.90
2023-03-07T10:12:44.122Z,99.90
2023-03-07T10:13:55.322Z,99.90
2023-03-07T10:15:09.255Z,99.90
2023-03-07T10:16:41.246Z,99.90
2023-03-07T10:18:14.982Z,99.90
2023-03-07T10:19:40.520Z,99.90
2023-03-07T10:21:09.715Z,99.80
2023-03-07T10:22:28.475Z,99.10
2023-03-07T10:23:53.798Z,99.40
2023-03-07T10:25:12.365Z,99.50
2023-03-07T10:26:52.096Z,99.60
2023-03-07T10:28:31.212Z,99.20
2023-03-07T10:29:46.594Z,99.40
2023-03-07T10:30:51.127Z,99.40
2023-03-07T10:32:23.433Z,99.40
2023-03-07T10:33:27.993Z,99.60
2023-03-07T10:34:32.508Z,99.60
2023-03-07T10:35:41.328Z,99.00
2023-03-07T10:36:46.971Z,98.10
2023-03-07T10:38:02.582Z,98.70
2023-03-07T10:39:15.087Z,98.40
2023-03-07T10:40:22.018Z,98.30
2023-03-07T10:41:23.660Z,98.30
2023-03-07T10:42:28.779Z,98.90
2023-03-07T10:43:34.403Z,98.50
2023-03-07T10:44:36.761Z,98.50
2023-03-07T10:45:38.431Z,98.10
2023-03-07T10:46:50.039Z,97.40
2023-03-07T10:48:00.654Z,97.60
2023-03-07T10:49:12.987Z,97.80
2023-03-07T10:50:54.144Z,97.50
2023-03-07T10:52:01.710Z,97.00
2023-03-07T10:53:09.188Z,96.80
2023-03-07T10:54:30.114Z,96.70
2023-03-07T10:55:42.255Z,97.10
2023-03-07T10:57:05.040Z,97.20
2023-03-07T10:58:25.954Z,97.20
2023-03-07T10:59:27.442Z,96.30
2023-03-07T11:00:29.064Z,96.40
2023-03-07T11:01:32.781Z,96.60
2023-03-07T11:02:48.101Z,96.70
2023-03-07T11:04:01.438Z,96.10
2023-03-07T11:05:19.878Z,95.40
2023-03-07T11:06:39.383Z,94.80
2023-03-07T11:07:40.890Z,94.80
2023-03-07T11:08:45.464Z,94.90
2023-03-07T11:09:47.902Z,94.50
2023-03-07T11:10:49.716Z,94.70
2023-03-07T11:12:00.084Z,95.10
2023-03-07T11:13:15.008Z,94.20
2023-03-07T11:14:18.796Z,94.30
2023-03-07T11:15:24.631Z,94.40
2023-03-07T11:16:26.680Z,94.50
2023-03-07T11:17:43.584Z,94.50
2023-03-07T11:18:46.075Z,94.80
2023-03-07T11:19:51.957Z,94.70
2023-03-07T11:20:54.340Z,95.00
2023-03-07T11:21:57.630Z,95.00
2023-03-07T11:23:26.311Z,95.40
2023-03-07T11:24:30.850Z,95.80
2023-03-07T11:25:35.762Z,95.00
2023-03-07T11:26:41.838Z,95.00
2023-03-07T11:27:46.389Z,95.00
2023-03-07T11:28:48.239Z,94.90
2023-03-07T11:30:19.075Z,95.30
2023-03-07T11:31:34.634Z,95.00
2023-03-07T11:32:40.600Z,95.30
2023-03-07T11:34:20.794Z,95.20
2023-03-07T11:35:29.702Z,94.50
2023-03-07T11:36:36.233Z,94.70
2023-03-07T11:38:19.293Z,94.60
2023-03-07T11:40:14.037Z,94.20
2023-03-07T11:41:37.911Z,94.40
2023-03-07T11:42:50.187Z,94.50
2023-03-07T11:44:09.925Z,94.80
2023-03-07T11:45:22.952Z,94.80
2023-03-07T11:46:51.192Z,94.20
2023-03-07T11:48:12.389Z,94.10
2023-03-07T11:49:51.389Z,94.10
2023-03-07T11:51:00.029Z,93.90
2023-03-07T11:52:17.424Z,93.90
2023-03-07T11:53:45.114Z,94.30
2023-03-07T11:54:56.447Z,94.30
2023-03-07T11:56:24.880Z,93.30
2023-03-07T11:57:58.543Z,93.40
2023-03-07T11:59:19.231Z,93.00
2023-03-07T12:00:55.148Z,92.80
2023-03-07T12:01:59.811Z,93.10
2023-03-07T12:03:23.449Z,93.50
2023-03-07T12:04:55.437Z,93.40
2023-03-07T12:06:10.713Z,93.70
2023-03-07T12:07:51.252Z,93.40
2023-03-07T12:08:58.883Z,94.10
2023-03-07T12:10:31.148Z,93.20
2023-03-07T12:11:51.376Z,93.70
2023-03-07T12:13:15.341Z,93.70
2023-03-07T12:14:54.266Z,94.00
2023-03-07T12:16:11.508Z,93.10
2023-03-07T12:17:46.716Z,93.20
2023-03-07T12:19:09.261Z,92.90
2023-03-07T12:20:48.059Z,92.40
2023-03-07T12:22:09.207Z,91.60
2023-03-07T12:23:16.803Z,92.10
2023-03-07T12:24:46.722Z,92.30
2023-03-07T12:25:58.208Z,91.30
2023-03-07T12:27:05.787Z,91.40
2023-03-07T12:28:15.676Z,91.80
2023-03-07T12:29:38.553Z,91.90
2023-03-07T12:30:45.997Z,91.70
2023-03-07T12:31:53.061Z,91.80
2023-03-07T12:32:55.320Z,92.00
2023-03-07T12:34:14.850Z,90.70
2023-03-07T12:35:32.435Z,91.10
2023-03-07T12:36:42.938Z,91.40
2023-03-07T12:38:07.996Z,90.60
2023-03-07T12:39:25.446Z,89.70
2023-03-07T12:40:39.944Z,90.10
2023-03-07T12:41:47.186Z,91.00
2023-03-07T12:42:55.911Z,91.40
2023-03-07T12:44:04.131Z,91.50
2023-03-07T12:45:13.050Z,90.90
2023-03-07T12:46:17.268Z,90.60
2023-03-07T12:47:51.955Z,91.30
2023-03-07T12:49:06.553Z,91.10
2023-03-07T12:50:24.746Z,90.60
2023-03-07T12:51:37.197Z,90.60
2023-03-07T12:52:54.509Z,90.90
2023-03-07T12:54:26.810Z,91.20
2023-03-07T12:55:44.149Z,90.90
2023-03-07T12:56:55.597Z,90.50
2023-03-07T12:58:40.213Z,90.80
2023-03-07T12:59:44.005Z,91.00
2023-03-07T13:01:14.492Z,91.00
2023-03-07T13:02:29.355Z,90.20
2023-03-07T13:03:50.858Z,90.70
2023-03-07T13:04:52.526Z,91.20
2023-03-07T13:05:54.508Z,91.50
2023-03-07T13:07:02.058Z,90.90
2023-03-07T13:08:07.169Z,90.90
2023-03-07T13:09:24.057Z,90.60
2023-03-07T13:10:26.208Z,90.50
2023-03-07T13:11:33.978Z,90.30
2023-03-07T13:12:38.102Z,91.20
2023-03-07T13:13:45.508Z,90.60
2023-03-07T13:14:48.089Z,89.30
2023-03-07T13:16:06.571Z,89.30
2023-03-07T13:17:12.966Z,89.70
2023-03-07T13:18:27.878Z,89.40
2023-03-07T13:19:35.566Z,89.50
2023-03-07T13:20:43.942Z,90.20
2023-03-07T13:21:45.841Z,90.00
2023-03-07T13:22:47.698Z,90.50
2023-03-07T13:23:49.280Z,90.30
2023-03-07T13:24:53.939Z,90.20
2023-03-07T13:26:04.748Z,90.80
2023-03-07T13:27:30.595Z,90.40
2023-03-07T13:28:41.796Z,89.50
2023-03-07T13:30:07.971Z,90.20
2023-03-07T13:31:15.359Z,90.40
2023-03-07T13:32:50.833Z,90.50
2023-03-07T13:33:53.099Z,90.70
2023-03-07T13:34:54.558Z,90.90
2023-03-07T13:36:00.429Z,91.20
2023-03-07T13:37:41.230Z,91.80
2023-03-07T13:38:46.637Z,91.70
2023-03-07T13:40:05.399Z,90.90
2023-03-07T13:41:10.071Z,91.50
2023-03-07T13:42:47.323Z,91.50
2023-03-07T13:43:48.746Z,91.90
2023-03-07T13:44:50.273Z,91.70
2023-03-07T13:45:54.096Z,91.70
2023-03-07T13:47:01.146Z,91.60
2023-03-07T13:48:03.003Z,91.80
2023-03-07T13:49:04.948Z,92.00
2023-03-07T13:50:35.170Z,92.10
2023-03-07T13:51:36.663Z,92.30
2023-03-07T13:52:39.750Z,91.70
2023-03-07T13:53:45.349Z,92.00
2023-03-07T13:54:50.798Z,91.70
2023-03-07T13:56:15.282Z,91.60
2023-03-07T13:57:18.916Z,91.70
2023-03-07T13:58:38.983Z,92.00
2023-03-07T13:59:41.006Z,92.30
2023-03-07T14:00:51.737Z,91.80
2023-03-07T14:02:01.509Z,91.50
2023-03-07T14:03:03.660Z,91.20
2023-03-07T14:04:39.491Z,91.50
2023-03-07T14:05:42.120Z,91.80
2023-03-07T14:06:52.427Z,92.20
2023-03-07T14:07:54.161Z,91.50
2023-03-07T14:08:56.455Z,91.80
2023-03-07T14:10:26.444Z,91.30
2023-03-07T14:11:39.265Z,91.10
2023-03-07T14:13:01.188Z,91.50
2023-03-07T14:14:15.834Z,91.50
2023-03-07T14:15:42.713Z,91.60